Time;durP1;ratioP1;P1;durP2;ratioP2;P2;SDS_P1;SDS_P2;PMS_P1;PMS_P2;Temp;Humidity;BMP_temperature;BMP_pressure;BME280_temperature;BME280_humidity;BME280_pressure;Samples;Min_cycle;Max_cycle;Signal;HPM_P1;HPM_P2
2022/07/24 00:01:46;;;;;;;0.10;0.10;;;12.90;99.90;;;;;;5021998;28;20200;-78
2022/07/24 00:04:12;;;;;;;0.20;0.20;;;12.90;99.90;;;;;;5017453;28;20600;-78
2022/07/24 00:06:37;;;;;;;0.10;0.10;;;12.90;99.90;;;;;;5014934;28;20683;-78
2022/07/24 00:09:04;;;;;;;0.20;0.20;;;12.80;99.90;;;;;;5019581;28;20197;-77
2022/07/24 00:11:29;;;;;;;0.13;0.13;;;12.80;99.90;;;;;;5018199;28;20194;-78
2022/07/24 00:13:55;;;;;;;0.20;0.20;;;12.80;99.90;;;;;;5026401;28;20914;-77
2022/07/24 00:16:21;;;;;;;0.20;0.20;;;12.70;99.90;;;;;;5023879;28;20241;-77
2022/07/24 00:18:46;;;;;;;0.10;0.10;;;12.70;99.90;;;;;;5019067;28;20449;-78
2022/07/24 00:21:12;;;;;;;0.10;0.10;;;12.90;99.90;;;;;;5021789;28;20270;-78
2022/07/24 00:23:37;;;;;;;0.10;0.10;;;12.80;99.90;;;;;;5023249;28;20622;-78
2022/07/24 00:26:03;;;;;;;0.10;0.10;;;12.70;99.90;;;;;;5022403;28;20294;-78
2022/07/24 00:28:29;;;;;;;0.20;0.20;;;12.80;99.90;;;;;;5005117;28;20278;-77
2022/07/24 00:30:54;;;;;;;0.20;0.20;;;12.80;99.90;;;;;;4999371;28;20207;-78
2022/07/24 00:33:20;;;;;;;0.20;0.20;;;12.70;99.90;;;;;;5028400;28;20179;-78
2022/07/24 00:35:46;;;;;;;0.20;0.20;;;12.70;99.90;;;;;;5007902;28;20816;-77
2022/07/24 00:38:11;;;;;;;0.20;0.20;;;12.70;99.90;;;;;;5000287;28;20203;-78
2022/07/24 00:40:37;;;;;;;0.20;0.20;;;12.60;99.90;;;;;;5003655;28;20208;-77
2022/07/24 00:43:03;;;;;;;0.20;0.20;;;12.60;99.90;;;;;;5004079;28;20183;-77
2022/07/24 00:45:30;;;;;;;0.20;0.20;;;12.50;99.90;;;;;;5003490;28;20281;-78
2022/07/24 00:47:56;;;;;;;0.20;0.20;;;12.50;99.90;;;;;;5018273;28;20446;-78
2022/07/24 00:50:21;;;;;;;0.20;0.20;;;12.50;99.90;;;;;;5027643;28;20481;-78
2022/07/24 00:52:47;;;;;;;0.20;0.20;;;12.50;99.90;;;;;;5001863;28;20183;-77
2022/07/24 00:55:13;;;;;;;0.10;0.10;;;12.50;99.90;;;;;;5021298;28;20189;-77
2022/07/24 00:57:38;;;;;;;0.20;0.20;;;12.40;99.90;;;;;;5024611;28;20438;-77
2022/07/24 01:00:06;;;;;;;0.10;0.10;;;12.30;99.90;;;;;;5020293;28;20187;-78
2022/07/24 01:02:32;;;;;;;0.20;0.20;;;12.40;99.90;;;;;;5025635;28;20231;-78
2022/07/24 01:04:57;;;;;;;0.20;0.20;;;12.40;99.90;;;;;;5005275;28;20973;-77
2022/07/24 01:07:23;;;;;;;0.20;0.20;;;12.40;99.90;;;;;;5012854;28;20482;-78
2022/07/24 01:09:49;;;;;;;0.20;0.20;;;12.40;99.90;;;;;;5024684;28;20317;-78
2022/07/24 01:12:17;;;;;;;0.20;0.20;;;12.40;99.90;;;;;;5011859;28;20760;-78
2022/07/24 01:14:43;;;;;;;0.20;0.20;;;12.30;99.90;;;;;;5021156;28;21006;-78
2022/07/24 01:17:08;;;;;;;0.20;0.20;;;12.00;99.90;;;;;;5023035;28;20445;-77
2022/07/24 01:19:34;;;;;;;0.20;0.20;;;12.10;99.90;;;;;;5024337;28;20956;-78
2022/07/24 01:21:59;;;;;;;0.20;0.20;;;12.10;99.90;;;;;;5029801;28;20637;-78
2022/07/24 01:24:25;;;;;;;0.10;0.10;;;12.30;99.90;;;;;;5025843;28;20183;-77
2022/07/24 01:26:50;;;;;;;0.10;0.10;;;12.30;99.90;;;;;;5002207;28;20228;-78
2022/07/24 01:29:16;;;;;;;0.20;0.20;;;12.40;99.90;;;;;;5017630;28;20183;-77
2022/07/24 01:31:42;;;;;;;0.20;0.20;;;12.40;99.90;;;;;;5028223;28;20214;-78
2022/07/24 01:34:07;;;;;;;0.20;0.20;;;12.30;99.90;;;;;;5008423;28;20549;-78
2022/07/24 01:36:33;;;;;;;0.10;0.10;;;12.40;99.90;;;;;;5009899;28;20199;-78
2022/07/24 01:38:58;;;;;;;0.20;0.20;;;12.30;99.90;;;;;;5023768;28;20298;-78
2022/07/24 01:41:24;;;;;;;0.20;0.20;;;12.30;99.90;;;;;;5013779;28;20261;-78
2022/07/24 01:43:50;;;;;;;0.20;0.20;;;12.30;99.90;;;;;;5024535;28;20190;-78
2022/07/24 01:46:15;;;;;;;0.20;0.20;;;12.30;99.90;;;;;;5005908;28;21037;-78
2022/07/24 01:48:42;;;;;;;0.20;0.20;;;12.20;99.90;;;;;;5008815;28;20195;-77
2022/07/24 01:51:08;;;;;;;0.20;0.20;;;12.20;99.90;;;;;;5010438;28;20192;-78
2022/07/24 01:53:34;;;;;;;0.20;0.20;;;12.20;99.90;;;;;;5029338;28;20612;-78
2022/07/24 01:56:00;;;;;;;0.20;0.20;;;12.20;99.90;;;;;;5010093;28;20958;-78
2022/07/24 01:58:25;;;;;;;0.20;0.20;;;12.20;99.90;;;;;;5021435;28;20231;-77
2022/07/24 02:00:51;;;;;;;0.20;0.20;;;12.20;99.90;;;;;;5011981;28;20270;-78
2022/07/24 02:03:18;;;;;;;0.20;0.20;;;12.10;99.90;;;;;;5028509;28;20278;-78
2022/07/24 02:05:44;;;;;;;0.20;0.20;;;12.10;99.90;;;;;;5025533;28;20474;-78
2022/07/24 02:08:09;;;;;;;0.20;0.20;;;12.00;99.90;;;;;;5027518;28;20468;-78
2022/07/24 02:10:35;;;;;;;0.20;0.20;;;12.00;99.90;;;;;;5020532;28;20679;-78
2022/07/24 02:13:01;;;;;;;0.20;0.20;;;12.00;99.90;;;;;;5026461;28;20199;-78
2022/07/24 02:15:26;;;;;;;0.20;0.20;;;11.90;99.90;;;;;;5022739;28;20200;-78
2022/07/24 02:17:56;;;;;;;0.20;0.20;;;11.90;99.90;;;;;;5026104;28;20647;-78
2022/07/24 02:20:22;;;;;;;0.20;0.20;;;11.90;99.90;;;;;;5023102;28;20199;-77
2022/07/24 02:22:47;;;;;;;0.20;0.20;;;11.90;99.90;;;;;;5006011;28;20446;-78
2022/07/24 02:25:14;;;;;;;0.20;0.20;;;11.90;99.90;;;;;;5029338;28;20643;-78
2022/07/24 02:27:40;;;;;;;0.20;0.20;;;11.90;99.90;;;;;;5028752;28;20227;-78
2022/07/24 02:30:08;;;;;;;0.20;0.20;;;11.80;99.90;;;;;;5024807;28;20450;-78
2022/07/24 02:32:34;;;;;;;0.20;0.20;;;11.90;99.90;;;;;;5023924;28;20195;-78
2022/07/24 02:34:59;;;;;;;0.20;0.20;;;11.90;99.90;;;;;;5006501;28;20445;-78
2022/07/24 02:37:25;;;;;;;0.20;0.20;;;11.90;99.90;;;;;;5018880;28;20222;-78
2022/07/24 02:39:50;;;;;;;0.20;0.20;;;11.90;99.90;;;;;;5028526;28;20189;-78
2022/07/24 02:42:16;;;;;;;0.20;0.20;;;11.80;99.90;;;;;;5024697;28;20196;-78
2022/07/24 02:44:42;;;;;;;0.20;0.20;;;11.80;99.90;;;;;;5010554;28;20227;-78
2022/07/24 02:47:07;;;;;;;0.20;0.20;;;11.80;99.90;;;;;;5007469;28;20230;-78
2022/07/24 02:49:33;;;;;;;0.20;0.20;;;11.70;99.90;;;;;;5024224;28;20246;-78
2022/07/24 02:51:58;;;;;;;0.20;0.20;;;11.70;99.90;;;;;;5026835;28;20184;-78
2022/07/24 02:54:24;;;;;;;0.20;0.20;;;11.70;99.90;;;;;;5020735;28;20219;-78
2022/07/24 02:56:49;;;;;;;0.20;0.20;;;11.70;99.90;;;;;;5022266;28;20294;-78
2022/07/24 02:59:15;;;;;;;0.20;0.20;;;11.60;99.90;;;;;;5004964;28;20231;-78
2022/07/24 03:01:40;;;;;;;0.20;0.20;;;11.70;99.90;;;;;;5027566;28;20209;-78
2022/07/24 03:04:06;;;;;;;0.20;0.20;;;11.70;99.90;;;;;;5016490;28;20227;-78
2022/07/24 03:06:32;;;;;;;0.20;0.20;;;11.70;99.90;;;;;;5020960;28;20215;-78
2022/07/24 03:08:58;;;;;;;0.20;0.20;;;11.70;99.90;;;;;;5020765;28;20179;-78
2022/07/24 03:11:23;;;;;;;0.20;0.20;;;11.70;99.90;;;;;;5026998;28;20450;-78
2022/07/24 03:13:49;;;;;;;0.20;0.20;;;11.70;99.90;;;;;;5025078;28;20262;-77
2022/07/24 03:16:16;;;;;;;0.20;0.20;;;11.70;99.90;;;;;;5024557;28;20195;-78
2022/07/24 03:18:45;;;;;;;0.20;0.20;;;11.70;99.90;;;;;;5024639;28;20652;-78
2022/07/24 03:21:12;;;;;;;0.20;0.20;;;11.60;99.90;;;;;;5027505;28;20804;-78
2022/07/24 03:23:38;;;;;;;0.20;0.20;;;11.60;99.90;;;;;;5025697;28;20445;-78
2022/07/24 03:26:03;;;;;;;0.20;0.20;;;11.60;99.90;;;;;;5025600;28;20483;-78
2022/07/24 03:28:29;;;;;;;0.20;0.20;;;11.60;99.90;;;;;;5024681;28;20278;-78
2022/07/24 03:30:55;;;;;;;0.20;0.20;;;11.60;99.90;;;;;;5021838;28;20193;-78
2022/07/24 03:33:20;;;;;;;0.20;0.20;;;11.50;99.90;;;;;;5019637;28;20453;-78
2022/07/24 03:35:46;;;;;;;0.20;0.20;;;11.60;99.90;;;;;;5023207;28;20192;-78
2022/07/24 03:38:11;;;;;;;0.20;0.20;;;11.60;99.90;;;;;;5007262;28;20196;-78
2022/07/24 03:40:37;;;;;;;0.20;0.20;;;11.60;99.90;;;;;;5026994;28;20194;-78
2022/07/24 03:43:02;;;;;;;0.20;0.20;;;11.60;99.90;;;;;;5020082;28;20523;-78
2022/07/24 03:45:28;;;;;;;0.20;0.20;;;11.70;99.90;;;;;;5021178;28;20565;-77
2022/07/24 03:47:53;;;;;;;0.20;0.20;;;11.70;99.90;;;;;;5020767;28;20647;-78
2022/07/24 03:50:19;;;;;;;0.20;0.20;;;11.60;99.90;;;;;;5024278;28;20184;-79
2022/07/24 03:52:44;;;;;;;0.20;0.20;;;11.70;99.90;;;;;;5023226;28;20210;-78
2022/07/24 03:55:10;;;;;;;0.20;0.20;;;11.70;99.90;;;;;;5019673;28;20234;-77
2022/07/24 03:57:35;;;;;;;0.20;0.20;;;11.60;99.90;;;;;;5009822;28;20199;-78
2022/07/24 04:00:01;;;;;;;0.20;0.20;;;11.70;99.90;;;;;;5022944;28;20872;-79
2022/07/24 04:02:26;;;;;;;0.20;0.20;;;11.70;99.90;;;;;;5017652;28;20214;-78
2022/07/24 04:04:52;;;;;;;0.20;0.20;;;11.70;99.90;;;;;;5010676;28;20238;-78
2022/07/24 04:07:18;;;;;;;0.20;0.20;;;11.80;99.90;;;;;;5018373;28;20219;-78
2022/07/24 04:09:43;;;;;;;0.20;0.20;;;11.80;99.90;;;;;;5022008;28;20694;-78
2022/07/24 04:12:09;;;;;;;0.20;0.20;;;11.80;99.90;;;;;;5016500;28;20254;-78
2022/07/24 04:14:34;;;;;;;0.20;0.20;;;11.80;99.90;;;;;;5012936;28;20527;-78
2022/07/24 04:17:00;;;;;;;0.20;0.20;;;11.70;99.90;;;;;;5017479;28;20214;-78
2022/07/24 04:19:25;;;;;;;0.20;0.20;;;11.80;99.90;;;;;;5018538;28;20620;-78
2022/07/24 04:21:50;;;;;;;0.20;0.20;;;11.90;99.90;;;;;;5025871;28;20196;-78
2022/07/24 04:24:16;;;;;;;0.20;0.20;;;11.90;99.90;;;;;;5016230;28;20187;-78
2022/07/24 04:26:42;;;;;;;0.20;0.20;;;11.90;99.90;;;;;;5024721;28;20219;-78
2022/07/24 04:29:07;;;;;;;0.20;0.20;;;11.90;99.90;;;;;;5026714;28;20266;-78
2022/07/24 04:31:33;;;;;;;0.20;0.20;;;11.90;99.90;;;;;;5009347;28;20196;-78
2022/07/24 04:33:58;;;;;;;0.20;0.20;;;12.00;99.90;;;;;;5019642;28;20187;-78
2022/07/24 04:36:24;;;;;;;0.20;0.20;;;12.00;99.90;;;;;;5011084;28;20216;-78
2022/07/24 04:38:49;;;;;;;0.10;0.10;;;12.10;99.90;;;;;;5014686;28;20274;-79
2022/07/24 04:41:17;;;;;;;0.20;0.20;;;12.10;99.90;;;;;;5023681;28;20271;-78
2022/07/24 04:43:43;;;;;;;0.20;0.20;;;12.20;99.90;;;;;;5016974;28;20175;-78
2022/07/24 04:46:08;;;;;;;0.20;0.20;;;12.20;99.90;;;;;;4998599;28;20490;-78
2022/07/24 04:48:34;;;;;;;0.20;0.20;;;12.20;99.90;;;;;;5020219;28;20683;-78
2022/07/24 04:50:59;;;;;;;0.20;0.20;;;12.30;99.90;;;;;;5015879;28;20270;-78
2022/07/24 04:53:25;;;;;;;0.20;0.20;;;12.30;99.90;;;;;;5021965;28;20184;-78
2022/07/24 04:55:50;;;;;;;0.20;0.20;;;12.40;99.90;;;;;;5017309;28;20199;-78
2022/07/24 04:58:16;;;;;;;0.20;0.20;;;12.40;99.90;;;;;;5015832;28;20259;-78
2022/07/24 05:00:41;;;;;;;0.13;0.13;;;12.50;99.90;;;;;;5000615;28;20224;-78
2022/07/24 05:03:07;;;;;;;0.20;0.20;;;12.50;99.90;;;;;;5012623;28;20321;-78
2022/07/24 05:05:33;;;;;;;0.20;0.20;;;12.60;99.90;;;;;;5014745;28;20571;-78
2022/07/24 05:07:59;;;;;;;0.10;0.10;;;12.60;99.90;;;;;;5019779;28;20454;-78
2022/07/24 05:10:24;;;;;;;0.20;0.20;;;12.60;99.90;;;;;;5024494;28;20671;-78
2022/07/24 05:12:50;;;;;;;0.17;0.17;;;12.70;99.90;;;;;;5010662;28;20196;-78
2022/07/24 05:15:15;;;;;;;0.17;0.17;;;12.70;99.90;;;;;;5003541;28;20904;-79
2022/07/24 05:17:41;;;;;;;0.20;0.20;;;12.80;99.90;;;;;;5007575;28;20756;-79
2022/07/24 05:20:08;;;;;;;0.20;0.20;;;12.90;99.90;;;;;;5025560;28;20188;-79
2022/07/24 05:22:33;;;;;;;0.20;0.20;;;13.00;99.90;;;;;;5012209;28;20911;-79
2022/07/24 05:24:59;;;;;;;0.20;0.20;;;13.10;99.90;;;;;;5020697;28;20445;-78
2022/07/24 05:27:24;;;;;;;0.10;0.10;;;13.20;99.90;;;;;;5010987;28;20336;-79
2022/07/24 05:29:50;;;;;;;0.20;0.20;;;13.30;99.90;;;;;;5011050;28;20183;-79
2022/07/24 05:32:15;;;;;;;0.20;0.20;;;13.40;99.90;;;;;;5026824;28;20212;-79
2022/07/24 05:34:41;;;;;;;0.10;0.10;;;13.50;99.90;;;;;;5024840;28;20180;-78
2022/07/24 05:37:07;;;;;;;0.10;0.10;;;13.60;99.90;;;;;;5025331;28;20277;-78
2022/07/24 05:39:33;;;;;;;0.20;0.20;;;13.70;99.90;;;;;;5002562;28;22176;-79
2022/07/24 05:41:58;;;;;;;0.10;0.10;;;13.90;99.90;;;;;;5021686;28;20525;-79
2022/07/24 05:44:24;;;;;;;0.10;0.10;;;14.00;99.90;;;;;;5020428;28;20193;-79
2022/07/24 05:46:49;;;;;;;0.20;0.20;;;14.10;99.90;;;;;;5024889;28;20233;-79
2022/07/24 05:49:15;;;;;;;0.10;0.10;;;14.20;99.90;;;;;;5022635;28;20293;-79
2022/07/24 05:51:41;;;;;;;0.10;0.10;;;14.30;99.90;;;;;;5027531;28;20203;-79
2022/07/24 05:54:06;;;;;;;0.10;0.10;;;14.40;99.90;;;;;;5006552;28;20230;-80
2022/07/24 05:56:32;;;;;;;0.10;0.10;;;14.50;99.90;;;;;;5018586;28;20187;-79
2022/07/24 05:58:57;;;;;;;0.10;0.10;;;14.60;99.90;;;;;;5023154;28;20714;-80
2022/07/24 06:01:23;;;;;;;0.10;0.10;;;14.60;99.90;;;;;;5024204;28;20188;-80
2022/07/24 06:03:48;;;;;;;0.10;0.10;;;14.80;99.90;;;;;;5012959;28;20184;-80
2022/07/24 06:06:14;;;;;;;0.20;0.20;;;15.00;99.90;;;;;;5027720;28;20222;-80
2022/07/24 06:08:39;;;;;;;0.10;0.10;;;14.90;99.90;;;;;;5029273;28;20191;-79
2022/07/24 06:11:05;;;;;;;0.10;0.10;;;15.00;99.90;;;;;;5031812;28;20195;-80
2022/07/24 06:13:31;;;;;;;0.10;0.10;;;15.00;99.90;;;;;;5026299;28;20188;-79
2022/07/24 06:15:56;;;;;;;0.10;0.10;;;15.00;99.90;;;;;;5021693;28;20590;-80
2022/07/24 06:18:22;;;;;;;0.10;0.10;;;15.10;99.90;;;;;;5010982;28;20188;-79
2022/07/24 06:20:47;;;;;;;0.10;0.10;;;15.30;99.90;;;;;;5027380;28;20196;-79
2022/07/24 06:23:13;;;;;;;0.10;0.10;;;15.30;99.90;;;;;;5029337;28;20188;-79
2022/07/24 06:25:38;;;;;;;0.10;0.10;;;15.30;99.90;;;;;;5023568;28;20204;-78
2022/07/24 06:28:04;;;;;;;0.10;0.10;;;15.40;99.90;;;;;;5019222;28;20252;-78
2022/07/24 06:30:29;;;;;;;0.10;0.10;;;15.50;99.90;;;;;;5022974;28;20187;-78
2022/07/24 06:32:57;;;;;;;0.10;0.10;;;15.50;99.90;;;;;;5015511;28;20261;-78
2022/07/24 06:35:27;;;;;;;0.10;0.10;;;15.60;99.90;;;;;;5031389;28;20192;-78
2022/07/24 06:37:53;;;;;;;0.20;0.20;;;15.80;99.90;;;;;;5028428;28;20434;-78
2022/07/24 06:40:20;;;;;;;0.10;0.10;;;16.00;99.90;;;;;;5021451;28;20461;-78
2022/07/24 06:42:47;;;;;;;0.10;0.10;;;16.00;99.90;;;;;;5027266;28;20789;-78
2022/07/24 06:45:12;;;;;;;0.10;0.10;;;16.10;99.90;;;;;;5029372;28;20953;-78
2022/07/24 06:47:38;;;;;;;0.10;0.10;;;16.30;99.90;;;;;;5027002;28;20486;-79
2022/07/24 06:50:04;;;;;;;0.10;0.10;;;16.20;99.90;;;;;;5022141;28;20183;-80
2022/07/24 06:52:30;;;;;;;0.10;0.10;;;16.30;99.90;;;;;;5007641;28;20206;-79
2022/07/24 06:54:55;;;;;;;0.20;0.20;;;16.40;99.90;;;;;;5030490;28;20441;-79
2022/07/24 06:57:21;;;;;;;0.10;0.10;;;16.40;99.90;;;;;;5032322;28;20230;-79
2022/07/24 06:59:47;;;;;;;0.10;0.10;;;16.50;99.90;;;;;;5012465;28;20232;-79
2022/07/24 07:02:12;;;;;;;0.10;0.10;;;16.50;99.90;;;;;;5016748;28;20191;-80
2022/07/24 07:04:38;;;;;;;0.10;0.10;;;16.80;99.90;;;;;;4998109;28;20179;-79
2022/07/24 07:07:04;;;;;;;0.10;0.10;;;16.90;99.90;;;;;;5024595;28;20226;-80
2022/07/24 07:09:29;;;;;;;0.10;0.10;;;17.10;99.90;;;;;;5023730;28;20688;-80
2022/07/24 07:11:55;;;;;;;0.10;0.10;;;17.20;99.90;;;;;;5020426;28;20445;-80
2022/07/24 07:14:21;;;;;;;0.10;0.10;;;17.30;99.90;;;;;;5021516;28;20302;-79
2022/07/24 07:16:47;;;;;;;0.10;0.10;;;17.40;99.90;;;;;;5019402;28;20258;-81
2022/07/24 07:19:12;;;;;;;0.10;0.10;;;17.50;99.90;;;;;;5001321;28;20194;-81
2022/07/24 07:21:38;;;;;;;0.10;0.10;;;17.40;99.90;;;;;;5030780;28;20442;-80
2022/07/24 07:24:04;;;;;;;0.10;0.10;;;17.60;99.90;;;;;;5028773;28;20196;-80
2022/07/24 07:26:30;;;;;;;0.20;0.20;;;17.60;99.90;;;;;;5009764;28;20713;-81
2022/07/24 07:28:56;;;;;;;0.10;0.10;;;17.60;99.90;;;;;;5031336;28;20450;-81
2022/07/24 07:31:21;;;;;;;0.10;0.10;;;17.50;99.90;;;;;;5008647;28;20197;-82
2022/07/24 07:33:47;;;;;;;0.10;0.10;;;17.50;99.90;;;;;;5016297;28;20229;-80
2022/07/24 07:36:13;;;;;;;0.10;0.10;;;17.50;99.90;;;;;;5003201;28;20191;-80
2022/07/24 07:38:39;;;;;;;0.10;0.10;;;17.70;99.90;;;;;;5013055;28;20529;-81
2022/07/24 07:41:05;;;;;;;0.10;0.10;;;17.80;99.90;;;;;;5011380;28;20226;-81
2022/07/24 07:43:31;;;;;;;0.10;0.10;;;17.90;99.90;;;;;;5010651;28;21207;-80
2022/07/24 07:45:57;;;;;;;0.10;0.10;;;17.70;99.90;;;;;;5019223;28;20474;-81
2022/07/24 07:48:22;;;;;;;0.10;0.10;;;17.80;99.90;;;;;;5030178;28;20199;-81
2022/07/24 07:50:48;;;;;;;0.10;0.10;;;17.80;99.90;;;;;;5022772;28;20194;-80
2022/07/24 07:53:13;;;;;;;0.10;0.10;;;18.00;99.90;;;;;;5024647;28;20196;-81
2022/07/24 07:55:39;;;;;;;0.10;0.10;;;18.20;99.90;;;;;;5019491;28;20207;-82
2022/07/24 07:58:05;;;;;;;0.10;0.10;;;18.20;99.90;;;;;;4996965;28;20375;-81
2022/07/24 08:00:31;;;;;;;0.10;0.10;;;18.30;99.90;;;;;;4976539;28;20231;-81
2022/07/24 08:02:57;;;;;;;0.10;0.10;;;18.50;99.90;;;;;;4995695;28;20204;-80
2022/07/24 08:05:22;;;;;;;0.10;0.10;;;18.70;99.90;;;;;;4991999;28;20416;-81
2022/07/24 08:07:48;;;;;;;0.10;0.10;;;18.70;99.90;;;;;;5010117;28;20224;-80
2022/07/24 08:10:14;;;;;;;0.10;0.10;;;19.00;99.90;;;;;;5001125;28;20185;-81
2022/07/24 08:12:39;;;;;;;0.10;0.10;;;19.30;99.90;;;;;;4997608;28;20184;-80
2022/07/24 08:15:05;;;;;;;0.10;0.10;;;19.20;99.90;;;;;;4986126;28;20184;-81
2022/07/24 08:17:31;;;;;;;0.10;0.10;;;19.70;99.90;;;;;;4977086;28;20189;-82
2022/07/24 08:19:56;;;;;;;0.10;0.10;;;19.60;99.90;;;;;;4998803;28;20450;-81
2022/07/24 08:22:22;;;;;;;0.10;0.10;;;19.40;99.90;;;;;;4998363;28;20194;-82
2022/07/24 08:24:48;;;;;;;0.10;0.10;;;19.50;99.90;;;;;;4999260;28;20185;-81
2022/07/24 08:27:13;;;;;;;0.10;0.10;;;19.80;99.90;;;;;;4996221;28;20303;-81
2022/07/24 08:29:39;;;;;;;0.10;0.10;;;20.00;99.90;;;;;;4998491;28;20188;-81
2022/07/24 08:32:04;;;;;;;0.10;0.10;;;20.20;99.90;;;;;;5002810;28;20195;-80
2022/07/24 08:34:30;;;;;;;0.10;0.10;;;20.30;99.90;;;;;;5007595;28;20195;-80
2022/07/24 08:36:55;;;;;;;0.10;0.10;;;20.40;99.90;;;;;;5002729;28;20287;-80
2022/07/24 08:39:21;;;;;;;0.10;0.10;;;20.50;99.90;;;;;;4985058;28;20659;-80
2022/07/24 08:41:47;;;;;;;0.10;0.00;;;20.90;99.90;;;;;;5001125;28;20196;-82
2022/07/24 08:44:12;;;;;;;0.10;0.10;;;20.90;99.90;;;;;;5016718;28;20180;-81
2022/07/24 08:46:40;;;;;;;0.10;0.10;;;20.80;99.90;;;;;;5015788;28;20216;-82
2022/07/24 08:49:12;;;;;;;0.10;0.00;;;21.00;99.90;;;;;;4988726;28;20219;-81
2022/07/24 08:51:39;;;;;;;0.10;0.00;;;21.00;99.90;;;;;;5005379;28;20942;-83
2022/07/24 08:54:06;;;;;;;0.10;0.00;;;20.90;99.90;;;;;;5004680;28;20469;-82
2022/07/24 08:56:33;;;;;;;0.10;0.00;;;21.00;99.90;;;;;;4991730;28;20482;-84
2022/07/24 08:58:59;;;;;;;0.10;0.00;;;21.10;99.90;;;;;;4999321;28;20545;-81
2022/07/24 09:01:25;;;;;;;0.10;0.10;;;21.20;99.90;;;;;;4997048;28;20446;-81
2022/07/24 09:03:51;;;;;;;0.10;0.00;;;21.50;99.90;;;;;;4988342;28;20447;-82
2022/07/24 09:06:16;;;;;;;0.10;0.10;;;21.40;99.90;;;;;;4981830;28;20225;-82
2022/07/24 09:08:56;;;;;;;0.10;0.00;;;21.40;99.90;;;;;;4976734;28;20222;-82
2022/07/24 09:11:21;;;;;;;0.10;0.10;;;21.70;99.90;;;;;;5004094;28;20203;-81
2022/07/24 09:16:36;;;;;;;0.10;0.10;;;21.90;99.90;;;;;;5007347;28;20247;-81
2022/07/24 09:19:09;;;;;;;0.10;0.10;;;22.00;99.90;;;;;;5002012;28;20451;-81
2022/07/24 09:21:37;;;;;;;0.10;0.00;;;22.10;99.90;;;;;;4980842;28;20459;-82
2022/07/24 09:24:18;;;;;;;0.10;0.00;;;22.40;99.90;;;;;;4972667;28;20503;-82
2022/07/24 09:26:55;;;;;;;0.10;0.00;;;22.60;99.90;;;;;;4997495;28;20486;-82
2022/07/24 09:29:25;;;;;;;0.10;0.00;;;23.00;99.90;;;;;;5003172;28;20950;-82
2022/07/24 09:31:55;;;;;;;0.10;0.00;;;22.90;99.90;;;;;;4985638;28;20505;-81
2022/07/24 09:34:21;;;;;;;0.10;0.00;;;23.00;99.90;;;;;;5000658;28;20447;-82
2022/07/24 09:36:55;;;;;;;0.10;0.00;;;23.40;99.90;;;;;;5011055;28;20438;-81
2022/07/24 09:39:22;;;;;;;0.10;0.00;;;23.30;99.90;;;;;;4990601;28;20443;-80
2022/07/24 09:41:53;;;;;;;0.10;0.00;;;23.20;99.90;;;;;;5000656;28;20538;-82
2022/07/24 09:44:19;;;;;;;0.10;0.00;;;23.60;99.90;;;;;;4995011;28;20444;-80
2022/07/24 09:46:55;;;;;;;0.10;0.00;;;24.00;99.90;;;;;;4999752;28;20482;-80
2022/07/24 09:49:22;;;;;;;0.10;0.00;;;24.00;99.90;;;;;;4997310;28;20440;-80
2022/07/24 09:52:16;;;;;;;0.10;0.00;;;24.10;99.90;;;;;;5001964;28;20530;-79
2022/07/24 09:54:45;;;;;;;0.10;0.00;;;24.30;99.90;;;;;;4976064;28;20428;-79
2022/07/24 09:57:24;;;;;;;0.10;0.00;;;24.20;99.90;;;;;;4995451;28;20558;-80
2022/07/24 09:59:54;;;;;;;0.10;0.00;;;24.60;99.90;;;;;;5005784;28;20854;-79
2022/07/24 10:02:22;;;;;;;0.10;0.00;;;24.10;99.90;;;;;;5006937;28;20607;-81
2022/07/24 10:04:50;;;;;;;0.10;0.00;;;23.70;99.90;;;;;;5002490;28;20432;-77
2022/07/24 10:07:18;;;;;;;0.10;0.00;;;23.60;99.90;;;;;;5011925;28;20494;-81
2022/07/24 10:09:47;;;;;;;0.10;0.00;;;23.70;99.90;;;;;;4992208;28;20439;-79
2022/07/24 10:12:18;;;;;;;0.10;0.00;;;23.70;99.90;;;;;;4987192;28;20502;-80
2022/07/24 10:14:45;;;;;;;0.10;0.00;;;24.10;99.90;;;;;;5009739;28;20483;-76
2022/07/24 10:17:12;;;;;;;0.10;0.00;;;24.10;99.90;;;;;;5003287;28;20542;-77
2022/07/24 10:19:45;;;;;;;0.10;0.00;;;24.00;99.90;;;;;;4992536;28;20459;-78
2022/07/24 10:22:15;;;;;;;0.10;0.00;;;24.10;99.90;;;;;;4999907;28;20449;-77
2022/07/24 10:24:55;;;;;;;0.10;0.00;;;24.00;99.90;;;;;;5008778;28;20975;-78
2022/07/24 10:27:23;;;;;;;0.10;0.00;;;23.90;99.90;;;;;;5002048;28;20894;-79
2022/07/24 10:29:52;;;;;;;0.10;0.00;;;23.80;99.90;;;;;;5008016;28;20434;-80
2022/07/24 10:32:18;;;;;;;0.10;0.00;;;24.50;99.90;;;;;;5011305;28;20451;-79
2022/07/24 10:35:13;;;;;;;0.10;0.00;;;24.70;99.90;;;;;;5004559;28;20947;-81
2022/07/24 10:37:39;;;;;;;0.10;0.00;;;24.80;99.90;;;;;;5000178;28;20428;-80
2022/07/24 10:40:36;;;;;;;0.10;0.10;;;25.50;99.90;;;;;;5003576;28;20452;-79
2022/07/24 10:43:08;;;;;;;0.10;0.00;;;25.90;99.90;;;;;;5010040;28;20530;-80
2022/07/24 10:45:45;;;;;;;0.10;0.10;;;26.30;99.90;;;;;;4994790;28;20498;-79
2022/07/24 10:48:20;;;;;;;0.10;0.00;;;26.80;99.90;;;;;;5012528;28;20442;-77
2022/07/24 10:51:05;;;;;;;0.10;0.00;;;26.60;99.90;;;;;;4991930;28;20435;-81
2022/07/24 10:53:37;;;;;;;0.10;0.00;;;27.00;99.90;;;;;;5007687;28;20497;-84
2022/07/24 10:56:49;;;;;;;0.10;0.00;;;26.70;99.90;;;;;;5009708;28;20458;-83
2022/07/24 10:59:41;;;;;;;0.10;0.00;;;27.00;99.90;;;;;;4967238;28;21290;-82
2022/07/24 11:02:29;;;;;;;0.10;0.00;;;27.00;99.90;;;;;;5005837;28;20443;-82
2022/07/24 11:05:29;;;;;;;0.10;0.00;;;27.30;99.90;;;;;;5007858;28;20951;-84
2022/07/24 11:08:29;;;;;;;0.10;0.00;;;27.70;99.90;;;;;;5003158;28;20487;-81
2022/07/24 11:10:59;;;;;;;0.10;0.00;;;27.90;99.90;;;;;;4983124;28;20447;-86
2022/07/24 11:13:34;;;;;;;0.10;0.00;;;28.00;99.90;;;;;;4989904;28;20525;-81
2022/07/24 11:16:15;;;;;;;0.10;0.00;;;27.30;99.90;;;;;;5004056;28;20890;-83
2022/07/24 11:18:49;;;;;;;0.10;0.00;;;27.80;99.90;;;;;;4992377;28;20462;-82
2022/07/24 11:21:35;;;;;;;0.10;0.00;;;28.70;99.90;;;;;;5008250;28;20976;-82
2022/07/24 11:24:16;;;;;;;0.10;0.00;;;28.40;99.90;;;;;;4974227;28;20447;-81
2022/07/24 11:26:59;;;;;;;0.10;0.00;;;28.90;99.90;;;;;;4992561;28;21006;-84
2022/07/24 11:29:27;;;;;;;0.10;0.00;;;28.80;99.90;;;;;;4990810;28;20525;-80
2022/07/24 11:32:01;;;;;;;0.10;0.00;;;29.10;99.90;;;;;;5004828;28;20455;-82
2022/07/24 11:34:29;;;;;;;0.10;0.00;;;28.90;99.90;;;;;;5001282;28;20437;-82
2022/07/24 11:36:56;;;;;;;0.10;0.00;;;29.20;99.90;;;;;;5006915;28;20523;-81
2022/07/24 11:39:28;;;;;;;0.10;0.00;;;29.40;99.90;;;;;;5004281;28;20538;-81
2022/07/24 11:41:57;;;;;;;0.10;0.00;;;29.60;99.90;;;;;;5002715;28;20970;-83
2022/07/24 11:44:25;;;;;;;0.10;0.00;;;29.80;99.90;;;;;;5007744;28;20537;-82
2022/07/24 11:46:52;;;;;;;0.10;0.00;;;29.50;99.90;;;;;;4998393;28;20507;-82
2022/07/24 11:49:18;;;;;;;0.10;0.00;;;29.20;99.90;;;;;;5003759;28;20451;-79
2022/07/24 11:51:46;;;;;;;0.10;0.00;;;29.40;99.90;;;;;;5005147;28;20467;-82
2022/07/24 11:54:13;;;;;;;0.10;0.00;;;29.50;99.90;;;;;;5004775;28;20212;-80
2022/07/24 11:56:39;;;;;;;0.10;0.00;;;29.50;99.90;;;;;;4993972;28;20522;-80
2022/07/24 11:59:05;;;;;;;0.10;0.00;;;29.10;99.90;;;;;;4998593;28;20491;-79
2022/07/24 12:01:31;;;;;;;0.10;0.00;;;29.40;99.90;;;;;;5008385;28;21084;-79
2022/07/24 12:03:59;;;;;;;0.10;0.00;;;28.60;99.90;;;;;;5007355;28;20195;-79
2022/07/24 12:06:26;;;;;;;0.10;0.00;;;29.10;99.90;;;;;;5004464;28;20211;-79
2022/07/24 12:08:56;;;;;;;0.10;0.00;;;28.90;99.90;;;;;;4997442;28;21001;-80
2022/07/24 12:11:22;;;;;;;0.10;0.00;;;29.60;99.90;;;;;;4992154;28;20491;-79
2022/07/24 12:13:49;;;;;;;0.10;0.00;;;30.10;99.90;;;;;;4977053;28;20444;-78
2022/07/24 12:16:24;;;;;;;0.10;0.00;;;30.30;99.90;;;;;;5002448;28;20443;-79
2022/07/24 12:18:49;;;;;;;0.10;0.00;;;29.40;99.90;;;;;;5008017;28;20483;-79
2022/07/24 12:21:15;;;;;;;0.10;0.00;;;30.00;99.90;;;;;;5007092;28;20459;-78
2022/07/24 12:23:41;;;;;;;0.10;0.00;;;29.30;99.90;;;;;;4987270;28;20217;-78
2022/07/24 12:26:07;;;;;;;0.10;0.00;;;28.60;99.90;;;;;;5002025;28;20209;-80
2022/07/24 12:28:32;;;;;;;0.10;0.00;;;28.00;99.90;;;;;;4983654;28;20210;-79
2022/07/24 12:31:07;;;;;;;0.10;0.00;;;28.00;99.90;;;;;;4987192;28;20453;-80
2022/07/24 12:33:33;;;;;;;0.10;0.00;;;28.60;99.90;;;;;;4999420;28;20188;-78
2022/07/24 12:36:10;;;;;;;0.10;0.00;;;29.10;99.90;;;;;;4991778;28;20547;-78
2022/07/24 12:38:41;;;;;;;0.00;0.00;;;28.90;99.90;;;;;;4994419;28;20258;-78
2022/07/24 12:41:13;;;;;;;0.00;0.00;;;28.50;99.90;;;;;;4985627;28;20604;-79
2022/07/24 12:44:02;;;;;;;0.00;0.00;;;28.20;99.90;;;;;;4982277;28;20946;-79
2022/07/24 12:46:33;;;;;;;0.00;0.00;;;27.80;99.90;;;;;;5001158;28;20458;-79
2022/07/24 12:49:05;;;;;;;0.00;0.00;;;27.90;99.90;;;;;;4990204;28;20818;-79
2022/07/24 12:51:49;;;;;;;0.00;0.00;;;27.90;99.90;;;;;;4992221;28;20447;-77
2022/07/24 12:54:31;;;;;;;0.00;0.00;;;27.90;99.90;;;;;;5008194;28;20448;-78